Time;durP1;ratioP1;P1;durP2;ratioP2;P2;SDS_P1;SDS_P2;PMS_P1;PMS_P2;Temp;Humidity;BMP_temperature;BMP_pressure;BME280_temperature;BME280_humidity;BME280_pressure;Samples;Min_cycle;Max_cycle;Signal;HPM_P1;HPM_P2
2021/03/13 00:01:08;;;;;;;50.50;24.43;;;;;;;-0.26;74.86;98134.58;2162086;82;21150;-76
2021/03/13 00:04:09;;;;;;;59.20;24.53;;;;;;;-0.17;75.01;98139.22;2160010;82;21277;-76
2021/03/13 00:07:10;;;;;;;60.73;22.17;;;;;;;-0.13;75.00;98134.28;2159666;82;21539;-76
2021/03/13 00:10:11;;;;;;;60.00;25.07;;;;;;;-0.02;75.40;98134.73;2160082;82;21178;-76
2021/03/13 00:13:12;;;;;;;59.60;24.30;;;;;;;0.11;75.27;98131.02;2160193;82;21408;-76
2021/03/13 00:16:13;;;;;;;48.40;22.67;;;;;;;0.24;75.32;98132.86;2160580;82;21118;-76
2021/03/13 00:19:14;;;;;;;60.20;23.47;;;;;;;0.38;75.28;98135.98;2161073;82;21495;-76
2021/03/13 00:22:15;;;;;;;57.80;22.53;;;;;;;0.50;75.03;98126.20;2161565;82;21427;-76
2021/03/13 00:25:16;;;;;;;55.47;23.23;;;;;;;0.60;74.78;98123.58;2161050;82;21489;-77
2021/03/13 00:28:21;;;;;;;56.23;22.80;;;;;;;0.66;74.60;98120.38;2161707;82;21551;-76
2021/03/13 00:31:22;;;;;;;56.57;24.47;;;;;;;0.73;74.49;98112.97;2161717;82;21265;-76
2021/03/13 00:34:23;;;;;;;53.13;23.30;;;;;;;0.76;74.30;98112.20;2160188;82;21262;-76
2021/03/13 00:37:24;;;;;;;52.13;22.30;;;;;;;0.77;74.19;98111.39;2159960;82;21957;-76
2021/03/13 00:40:25;;;;;;;49.23;21.40;;;;;;;0.78;74.15;98111.45;2161419;82;21315;-76
2021/03/13 00:43:28;;;;;;;55.83;22.83;;;;;;;0.80;74.08;98108.94;2161435;82;21225;-76
2021/03/13 00:46:30;;;;;;;55.93;23.07;;;;;;;0.80;73.89;98098.66;2161611;82;21122;-76
2021/03/13 00:49:31;;;;;;;54.07;21.80;;;;;;;0.81;73.89;98096.56;2161837;82;21274;-76
2021/03/13 00:52:32;;;;;;;48.23;22.33;;;;;;;0.81;73.86;98092.70;2168380;81;21502;-76
2021/03/13 00:55:33;;;;;;;55.43;22.67;;;;;;;0.83;73.87;98092.35;2178861;81;21241;-76
2021/03/13 00:58:34;;;;;;;43.10;19.97;;;;;;;0.84;73.80;98095.39;2179055;81;21082;-77
2021/03/13 01:01:35;;;;;;;58.13;23.73;;;;;;;0.88;73.70;98087.02;2178518;81;21231;-76
2021/03/13 01:04:36;;;;;;;55.03;21.90;;;;;;;0.91;73.59;98097.41;2178115;81;21129;-76
2021/03/13 01:07:37;;;;;;;53.77;23.33;;;;;;;0.92;73.48;98090.16;2178529;82;21118;-76
2021/03/13 01:10:38;;;;;;;47.87;21.53;;;;;;;0.94;73.39;98089.81;2178554;81;21125;-76
2021/03/13 01:13:39;;;;;;;51.90;23.67;;;;;;;0.94;73.34;98091.97;2178797;81;21121;-76
2021/03/13 01:16:40;;;;;;;58.47;22.87;;;;;;;0.94;73.29;98093.66;2178114;81;21126;-76
2021/03/13 01:19:41;;;;;;;52.33;22.47;;;;;;;0.96;73.19;98088.17;2177119;81;21130;-76
2021/03/13 01:22:42;;;;;;;59.23;22.83;;;;;;;0.99;73.07;98084.84;2177070;81;21268;-76
2021/03/13 01:25:43;;;;;;;53.43;21.17;;;;;;;0.99;73.02;98080.58;2177056;81;21142;-76
2021/03/13 01:28:44;;;;;;;56.07;22.23;;;;;;;1.00;72.90;98082.33;2177278;82;21553;-77
2021/03/13 01:31:45;;;;;;;51.83;21.70;;;;;;;0.99;72.90;98075.44;2177863;81;21154;-76
2021/03/13 01:34:46;;;;;;;52.37;22.13;;;;;;;0.98;72.85;98074.97;2177748;81;21094;-76
2021/03/13 01:37:47;;;;;;;53.43;24.30;;;;;;;0.95;72.85;98062.01;2177202;81;21156;-76
2021/03/13 01:40:48;;;;;;;47.13;20.57;;;;;;;0.92;72.89;98065.75;2177162;81;21130;-76
2021/03/13 01:43:49;;;;;;;53.43;22.20;;;;;;;0.92;72.83;98068.32;2177392;81;21098;-76
2021/03/13 01:46:50;;;;;;;52.73;22.70;;;;;;;0.91;72.80;98060.14;2177806;81;21126;-76
2021/03/13 01:49:51;;;;;;;52.00;21.93;;;;;;;0.91;72.85;98062.72;2177650;81;21442;-77
2021/03/13 01:52:52;;;;;;;48.27;22.13;;;;;;;0.91;72.71;98059.73;2170903;81;21442;-76
2021/03/13 01:55:53;;;;;;;56.17;21.53;;;;;;;0.91;72.70;98058.86;2160808;82;21500;-76
2021/03/13 01:58:54;;;;;;;49.77;23.10;;;;;;;0.89;72.65;98056.64;2160170;82;21118;-76
2021/03/13 02:01:55;;;;;;;49.60;21.77;;;;;;;0.92;72.65;98055.47;2160696;82;21265;-76
2021/03/13 02:04:56;;;;;;;46.73;21.73;;;;;;;0.93;72.61;98052.08;2161875;82;21519;-76
2021/03/13 02:07:58;;;;;;;56.97;21.50;;;;;;;0.95;72.47;98046.59;2161278;82;21523;-76
2021/03/13 02:10:59;;;;;;;47.73;20.33;;;;;;;0.96;72.44;98045.77;2159758;82;21304;-76
2021/03/13 02:14:00;;;;;;;48.20;20.40;;;;;;;0.98;72.39;98050.55;2160319;82;21139;-75
2021/03/13 02:17:01;;;;;;;43.40;20.30;;;;;;;1.02;72.33;98043.84;2161160;82;21135;-75
2021/03/13 02:20:02;;;;;;;50.47;21.27;;;;;;;1.02;72.20;98030.98;2160840;82;21242;-76
2021/03/13 02:23:03;;;;;;;42.33;19.70;;;;;;;1.02;72.13;98029.29;2159981;82;21254;-75
2021/03/13 02:26:04;;;;;;;42.00;19.17;;;;;;;1.02;72.10;98034.43;2161176;82;21515;-76
2021/03/13 02:29:07;;;;;;;50.23;19.33;;;;;;;1.02;72.03;98024.15;2161863;82;21272;-76
2021/03/13 02:32:09;;;;;;;50.80;20.05;;;;;;;1.01;72.02;98024.97;2161590;82;21542;-75
2021/03/13 02:35:10;;;;;;;42.93;18.70;;;;;;;1.01;71.95;98021.11;2161556;82;21363;-76
2021/03/13 02:38:11;;;;;;;42.43;19.37;;;;;;;0.98;71.95;98023.58;2161873;82;21257;-76
2021/03/13 02:41:12;;;;;;;42.27;19.47;;;;;;;0.95;71.98;98020.48;2161682;82;21165;-75
2021/03/13 02:44:14;;;;;;;33.97;17.47;;;;;;;0.94;72.01;98015.29;2160882;82;21122;-76
2021/03/13 02:47:15;;;;;;;49.30;20.63;;;;;;;0.93;72.08;98008.40;2159821;82;21281;-76
2021/03/13 02:50:16;;;;;;;41.20;17.60;;;;;;;0.97;72.06;98013.23;2159800;82;21261;-75
2021/03/13 02:53:17;;;;;;;40.23;16.67;;;;;;;1.00;71.96;97999.22;2169016;81;21153;-76
2021/03/13 02:56:18;;;;;;;48.97;19.23;;;;;;;1.02;71.95;98001.43;2178443;81;21134;-76
2021/03/13 02:59:19;;;;;;;42.40;18.97;;;;;;;1.06;71.89;97996.86;2179127;81;21130;-76
2021/03/13 03:02:23;;;;;;;38.87;18.10;;;;;;;1.06;71.77;97991.72;2179580;81;21122;-76
2021/03/13 03:05:25;;;;;;;44.10;16.93;;;;;;;1.07;71.77;97973.78;2178003;81;21265;-76
2021/03/13 03:08:26;;;;;;;36.53;16.17;;;;;;;1.08;71.69;97969.52;2177836;81;21165;-76
2021/03/13 03:11:27;;;;;;;41.97;18.77;;;;;;;1.09;71.67;97970.86;2177819;81;21252;-76
2021/03/13 03:14:28;;;;;;;43.13;18.87;;;;;;;1.11;71.59;97974.36;2176812;81;21134;-76
2021/03/13 03:17:29;;;;;;;47.57;17.83;;;;;;;1.15;71.59;97974.92;2176085;81;21967;-75
2021/03/13 03:20:30;;;;;;;46.37;19.13;;;;;;;1.19;71.54;97969.06;2177008;81;21276;-76
2021/03/13 03:23:31;;;;;;;45.63;18.20;;;;;;;1.25;71.45;97972.26;2178220;81;21149;-76
2021/03/13 03:26:32;;;;;;;42.07;18.10;;;;;;;1.28;71.35;97976.22;2179451;81;21510;-76
2021/03/13 03:29:34;;;;;;;41.10;17.90;;;;;;;1.30;71.26;97977.56;2178574;81;21165;-75
2021/03/13 03:32:35;;;;;;;41.07;17.73;;;;;;;1.32;71.23;97977.20;2178466;81;21166;-75
2021/03/13 03:35:36;;;;;;;38.47;17.07;;;;;;;1.31;71.15;97975.45;2177914;81;21141;-76
2021/03/13 03:38:37;;;;;;;33.10;15.03;;;;;;;1.32;71.09;97974.22;2178848;81;21122;-76
2021/03/13 03:41:38;;;;;;;39.93;16.40;;;;;;;1.35;71.04;97959.30;2178067;81;21149;-76
2021/03/13 03:44:39;;;;;;;38.00;16.27;;;;;;;1.36;71.01;97958.48;2177330;81;21114;-76
2021/03/13 03:47:40;;;;;;;36.27;15.30;;;;;;;1.36;70.96;97955.91;2177651;81;21129;-77
2021/03/13 03:50:42;;;;;;;36.87;16.33;;;;;;;1.34;70.91;97949.84;2177215;81;21399;-76
2021/03/13 03:53:43;;;;;;;33.70;15.23;;;;;;;1.35;70.89;97946.45;2168589;81;21154;-76
2021/03/13 03:56:44;;;;;;;29.97;14.77;;;;;;;1.33;70.74;97941.66;2161456;82;21264;-76
2021/03/13 03:59:45;;;;;;;31.33;15.17;;;;;;;1.34;70.74;97945.98;2162092;82;21400;-76
2021/03/13 04:02:46;;;;;;;31.73;16.93;;;;;;;1.35;70.69;97933.59;2162143;82;21412;-76
2021/03/13 04:05:47;;;;;;;31.70;15.83;;;;;;;1.37;70.65;97933.23;2162278;82;21130;-76
2021/03/13 04:08:48;;;;;;;33.70;15.17;;;;;;;1.41;70.66;97933.80;2161001;82;21289;-77
2021/03/13 04:11:49;;;;;;;32.23;14.63;;;;;;;1.42;70.65;97935.54;2159106;82;21304;-76
2021/03/13 04:14:51;;;;;;;36.43;15.53;;;;;;;1.43;70.56;97936.88;2161638;82;21165;-76
2021/03/13 04:17:52;;;;;;;39.03;15.13;;;;;;;1.45;70.53;97930.50;2160858;82;21126;-76
2021/03/13 04:20:53;;;;;;;36.10;14.97;;;;;;;1.46;70.48;97925.41;2160078;82;21270;-76
2021/03/13 04:23:54;;;;;;;40.17;15.27;;;;;;;1.47;70.37;97915.58;2160543;82;21245;-77
2021/03/13 04:26:55;;;;;;;43.03;17.10;;;;;;;3.03;84.70;97909.51;2160423;82;21429;-78
2021/03/13 04:29:56;;;;;;;36.10;15.73;;;;;;;6.91;82.13;97894.53;2159771;82;21178;-77
2021/03/13 04:32:57;;;;;;;33.23;15.00;;;;;;;9.54;75.79;97892.34;2159352;82;21281;-78
2021/03/13 04:35:58;;;;;;;31.93;13.80;;;;;;;11.13;67.21;97886.80;2159803;82;21522;-76
2021/03/13 04:38:59;;;;;;;25.33;13.10;;;;;;;11.85;58.22;97867.61;2159111;82;21131;-77
2021/03/13 04:42:00;;;;;;;28.30;13.63;;;;;;;9.51;54.17;97878.41;2158618;82;21123;-76
2021/03/13 04:45:01;;;;;;;25.73;12.67;;;;;;;7.28;54.91;97889.31;2157625;82;21515;-77
2021/03/13 04:48:02;;;;;;;27.77;12.97;;;;;;;5.83;56.91;97885.27;2157075;82;21271;-77
2021/03/13 04:51:03;;;;;;;26.80;13.27;;;;;;;4.82;58.47;97890.40;2156564;82;22042;-77
2021/03/13 04:54:04;;;;;;;33.73;13.90;;;;;;;4.04;59.94;97884.89;2156831;82;21272;-77
2021/03/13 04:57:05;;;;;;;25.93;12.60;;;;;;;3.52;61.23;97887.56;2156618;82;21134;-76
2021/03/13 05:00:06;;;;;;;26.03;12.33;;;;;;;3.10;62.12;97886.92;2156167;82;21483;-77
2021/03/13 05:03:07;;;;;;;30.07;13.00;;;;;;;2.80;62.92;97887.41;2156982;82;21288;-76
2021/03/13 05:06:08;;;;;;;27.80;13.50;;;;;;;2.56;63.63;97884.59;2157129;82;21265;-77
2021/03/13 05:09:10;;;;;;;21.50;11.23;;;;;;;2.41;64.24;97884.16;2156878;82;21293;-78
2021/03/13 05:12:11;;;;;;;23.47;12.17;;;;;;;2.30;64.77;97882.98;2157713;82;21260;-77
2021/03/13 05:15:12;;;;;;;21.17;11.20;;;;;;;2.21;65.05;97873.70;2157583;82;21138;-77
2021/03/13 05:18:13;;;;;;;25.83;12.27;;;;;;;2.14;65.45;97869.20;2157937;82;21277;-77
2021/03/13 05:21:14;;;;;;;27.23;13.00;;;;;;;2.11;65.75;97867.41;2157280;82;21115;-76
2021/03/13 05:24:15;;;;;;;26.60;12.87;;;;;;;2.14;66.00;97867.92;2157290;82;22114;-75
2021/03/13 05:27:16;;;;;;;22.93;10.07;;;;;;;2.21;66.18;97876.28;2156859;82;21247;-76
2021/03/13 05:30:17;;;;;;;21.83;8.90;;;;;;;2.29;66.40;97877.78;2157416;82;21170;-76
2021/03/13 05:33:19;;;;;;;19.40;9.43;;;;;;;2.34;66.26;97877.50;2157139;81;21698;-76
2021/03/13 05:36:20;;;;;;;22.20;9.40;;;;;;;2.39;66.33;97881.95;2156728;82;21146;-76
2021/03/13 05:39:21;;;;;;;23.50;9.00;;;;;;;2.46;66.26;97885.58;2159396;82;21276;-78
2021/03/13 05:42:22;;;;;;;21.57;10.40;;;;;;;2.74;66.82;97887.23;2159398;82;21146;-78
2021/03/13 05:45:24;;;;;;;24.77;11.80;;;;;;;2.84;66.07;97886.23;2159270;82;21477;-77
2021/03/13 05:48:25;;;;;;;18.03;9.97;;;;;;;2.85;65.99;97885.83;2159442;82;21543;-79
2021/03/13 05:51:26;;;;;;;17.53;10.17;;;;;;;2.88;65.65;97885.91;2158179;82;21289;-78
2021/03/13 05:54:27;;;;;;;18.10;9.03;;;;;;;2.89;65.80;97891.52;2166991;82;21841;-77
2021/03/13 05:57:28;;;;;;;16.77;8.27;;;;;;;2.98;65.98;97899.91;2174103;81;21138;-77
2021/03/13 06:00:29;;;;;;;14.53;7.17;;;;;;;3.05;65.60;97909.13;2175224;81;21265;-76
2021/03/13 06:03:30;;;;;;;17.03;8.63;;;;;;;3.14;65.14;97908.08;2176635;81;21300;-75
2021/03/13 06:06:31;;;;;;;16.50;7.43;;;;;;;3.23;65.71;97911.73;2176863;81;21154;-75
2021/03/13 06:09:32;;;;;;;18.70;8.20;;;;;;;3.30;65.72;97913.22;2177369;81;21161;-75
2021/03/13 06:12:33;;;;;;;16.87;8.27;;;;;;;3.40;65.45;97910.45;2176236;81;21892;-75
2021/03/13 06:15:34;;;;;;;15.37;8.37;;;;;;;3.49;65.32;97915.45;2175460;81;21260;-74
2021/03/13 06:18:35;;;;;;;15.03;7.63;;;;;;;3.56;65.47;97920.34;2174644;81;21130;-74
2021/03/13 06:21:36;;;;;;;16.27;7.77;;;;;;;3.62;65.33;97918.33;2175114;81;21248;-75
2021/03/13 06:24:37;;;;;;;23.47;9.13;;;;;;;3.71;65.43;97924.58;2176661;81;21389;-75
2021/03/13 06:27:39;;;;;;;15.53;8.03;;;;;;;3.83;65.43;97932.62;2177113;81;22191;-74
2021/03/13 06:30:42;;;;;;;21.00;10.07;;;;;;;3.90;65.13;97939.22;2177554;82;21815;-75
2021/03/13 06:33:43;;;;;;;16.70;9.03;;;;;;;3.96;64.95;97941.52;2176666;81;21475;-76
2021/03/13 06:36:44;;;;;;;21.67;9.43;;;;;;;3.99;64.84;97949.76;2175589;81;21257;-73
2021/03/13 06:39:45;;;;;;;19.90;8.73;;;;;;;4.02;65.71;97948.54;2175263;81;21121;-76
2021/03/13 06:42:46;;;;;;;16.10;8.47;;;;;;;4.01;66.35;97941.63;2176317;81;21530;-76
2021/03/13 06:45:48;;;;;;;22.67;10.67;;;;;;;4.05;67.15;97935.28;2176161;82;21268;-76
2021/03/13 06:48:49;;;;;;;12.17;7.83;;;;;;;4.14;67.25;97943.23;2176501;81;22061;-76
2021/03/13 06:51:50;;;;;;;13.60;7.43;;;;;;;4.21;67.70;97935.20;2176200;81;21094;-78
2021/03/13 06:54:51;;;;;;;13.27;6.97;;;;;;;4.25;67.96;97934.85;2176147;81;21134;-75
2021/03/13 06:57:52;;;;;;;11.30;6.90;;;;;;;4.25;67.93;97942.18;2175735;82;21173;-77
2021/03/13 07:00:53;;;;;;;14.97;6.97;;;;;;;4.30;68.04;97937.98;2177063;81;21510;-76
2021/03/13 07:03:54;;;;;;;11.20;6.20;;;;;;;4.36;68.23;97938.58;2177912;81;21138;-76
2021/03/13 07:06:55;;;;;;;16.37;6.50;;;;;;;4.49;67.77;97940.58;2178571;81;21407;-80
2021/03/13 07:09:56;;;;;;;11.60;5.80;;;;;;;4.61;67.42;97938.67;2177201;81;21268;-76
2021/03/13 07:12:57;;;;;;;26.03;11.33;;;;;;;4.70;67.09;97938.86;2177347;81;21403;-76
2021/03/13 07:15:58;;;;;;;12.87;6.23;;;;;;;4.82;66.82;97941.69;2177459;81;21114;-76
2021/03/13 07:18:59;;;;;;;13.23;6.67;;;;;;;4.95;66.75;97937.21;2178082;81;21249;-76
2021/03/13 07:22:01;;;;;;;14.07;7.53;;;;;;;5.15;66.51;97935.00;2176247;81;21142;-76
2021/03/13 07:25:02;;;;;;;17.97;6.20;;;;;;;5.32;65.86;97934.05;2177360;81;21094;-77
2021/03/13 07:28:03;;;;;;;12.30;5.90;;;;;;;5.49;65.75;97933.92;2177677;81;21079;-78
2021/03/13 07:31:04;;;;;;;13.17;5.87;;;;;;;5.51;64.87;97932.64;2176290;81;21126;-75
2021/03/13 07:34:06;;;;;;;10.73;5.83;;;;;;;5.50;64.70;97934.36;2176976;81;21272;-78
2021/03/13 07:37:07;;;;;;;10.67;6.10;;;;;;;5.50;64.68;97932.20;2174917;81;21153;-78
2021/03/13 07:40:08;;;;;;;14.63;5.93;;;;;;;5.49;63.78;97939.09;2175512;81;21264;-77
2021/03/13 07:43:09;;;;;;;11.93;6.03;;;;;;;5.45;63.82;97937.30;2176596;81;21137;-77
2021/03/13 07:46:10;;;;;;;11.50;6.10;;;;;;;5.50;64.10;97941.26;2177384;81;21114;-77
2021/03/13 07:49:11;;;;;;;13.83;6.40;;;;;;;5.51;63.55;97955.95;2176388;81;21162;-77
2021/03/13 07:52:12;;;;;;;16.97;7.37;;;;;;;5.54;63.16;97948.23;2174001;81;21316;-78
2021/03/13 07:55:13;;;;;;;18.73;7.53;;;;;;;5.64;63.26;97949.70;2174092;82;21154;-78
2021/03/13 07:58:15;;;;;;;16.43;7.77;;;;;;;5.74;63.21;97946.84;2174621;81;21244;-77
2021/03/13 08:01:16;;;;;;;14.73;7.63;;;;;;;5.86;62.78;97944.45;2175221;81;21577;-77
2021/03/13 08:04:17;;;;;;;13.40;7.63;;;;;;;5.99;62.91;97945.13;2174155;81;21313;-77
2021/03/13 08:07:18;;;;;;;20.63;8.10;;;;;;;6.18;62.29;97950.63;2174236;81;21106;-78
2021/03/13 08:10:19;;;;;;;14.17;7.90;;;;;;;6.30;61.28;97948.20;2174668;81;21377;-77
2021/03/13 08:13:20;;;;;;;15.97;7.77;;;;;;;6.46;61.90;97951.88;2175903;81;21142;-77
2021/03/13 08:16:21;;;;;;;19.37;7.73;;;;;;;6.67;61.38;97949.58;2175484;81;21271;-76
2021/03/13 08:19:22;;;;;;;16.07;8.50;;;;;;;6.89;60.44;97942.92;2175848;81;21102;-76
2021/03/13 08:22:23;;;;;;;44.50;22.40;;;;;;;7.09;60.72;97946.66;2175020;81;21534;-76
2021/03/13 08:25:25;;;;;;;23.10;8.73;;;;;;;7.31;60.12;97947.33;2176207;81;21261;-76
2021/03/13 08:28:26;;;;;;;13.63;6.83;;;;;;;7.71;58.79;97941.64;2177093;82;21261;-77
2021/03/13 08:31:28;;;;;;;17.20;6.83;;;;;;;7.90;59.13;97935.34;2176970;81;21142;-78
2021/03/13 08:34:29;;;;;;;11.77;5.87;;;;;;;7.99;58.04;97935.84;2177981;81;21256;-75
2021/03/13 08:37:30;;;;;;;10.57;5.83;;;;;;;8.16;57.39;97934.66;2176791;81;21118;-76
2021/03/13 08:40:31;;;;;;;13.47;6.00;;;;;;;8.29;58.26;97931.28;2176497;81;22023;-75
2021/03/13 08:43:32;;;;;;;9.07;4.83;;;;;;;8.48;57.28;97933.59;2175890;81;21304;-76
2021/03/13 08:46:33;;;;;;;10.27;4.87;;;;;;;8.60;55.26;97929.33;2175674;81;21118;-76
2021/03/13 08:49:35;;;;;;;18.93;6.00;;;;;;;8.52;54.22;97926.24;2175655;81;21280;-76
2021/03/13 08:52:36;;;;;;;11.40;5.30;;;;;;;8.45;54.94;97938.78;2176588;81;21270;-77
2021/03/13 08:55:37;;;;;;;9.73;4.47;;;;;;;8.29;54.90;97933.45;2166917;81;21249;-77
2021/03/13 08:58:38;;;;;;;11.47;4.70;;;;;;;8.21;54.49;97929.06;2160433;82;21530;-76
2021/03/13 09:01:39;;;;;;;8.63;4.10;;;;;;;8.21;52.95;97942.06;2159799;82;21456;-76
2021/03/13 09:04:40;;;;;;;7.53;3.70;;;;;;;8.31;53.26;97930.86;2159821;82;21558;-76
2021/03/13 09:07:41;;;;;;;12.60;3.27;;;;;;;8.35;53.80;97926.16;2159622;82;21126;-76
2021/03/13 09:10:42;;;;;;;7.93;3.30;;;;;;;8.48;52.60;97925.79;2159738;82;21258;-76
2021/03/13 09:13:44;;;;;;;9.23;4.03;;;;;;;8.57;53.37;97920.64;2159979;82;21249;-76
2021/03/13 09:16:45;;;;;;;9.10;3.57;;;;;;;8.59;52.69;97935.39;2160620;82;21262;-77
2021/03/13 09:19:46;;;;;;;5.13;2.87;;;;;;;8.70;52.71;97927.67;2161455;82;21271;-77
2021/03/13 09:22:47;;;;;;;4.97;2.87;;;;;;;8.98;51.66;97921.27;2161532;82;21119;-78
2021/03/13 09:25:48;;;;;;;6.70;4.20;;;;;;;9.20;51.08;97919.17;2159879;82;21277;-76
2021/03/13 09:28:49;;;;;;;26.37;8.67;;;;;;;9.36;51.10;97927.45;2159028;82;21629;-78
2021/03/13 09:31:50;;;;;;;8.60;4.03;;;;;;;9.38;51.20;97928.32;2159824;82;21238;-77
2021/03/13 09:34:52;;;;;;;8.83;3.20;;;;;;;9.45;50.01;97926.59;2159686;82;21623;-77
2021/03/13 09:37:53;;;;;;;5.60;3.33;;;;;;;9.37;49.25;97935.70;2159926;82;21257;-78
2021/03/13 09:40:54;;;;;;;9.23;4.73;;;;;;;9.14;50.03;97924.36;2159346;82;21087;-77
2021/03/13 09:43:55;;;;;;;15.37;5.73;;;;;;;9.00;49.89;97922.15;2159679;82;21134;-77
2021/03/13 09:46:56;;;;;;;9.17;4.43;;;;;;;8.97;50.34;97923.01;2159770;82;21408;-77
2021/03/13 09:49:57;;;;;;;5.57;3.50;;;;;;;9.08;51.05;97913.92;2160545;82;21269;-77
2021/03/13 09:52:58;;;;;;;5.77;3.17;;;;;;;9.29;51.08;97911.81;2160397;82;21130;-77
2021/03/13 09:55:59;;;;;;;7.73;3.80;;;;;;;9.45;50.76;97898.81;2171560;81;21150;-77
2021/03/13 09:59:00;;;;;;;9.53;3.40;;;;;;;9.65;49.42;97896.25;2177338;81;21471;-77
2021/03/13 10:02:01;;;;;;;7.20;3.90;;;;;;;9.75;50.33;97893.22;2177153;81;21126;-77
2021/03/13 10:05:02;;;;;;;6.23;3.07;;;;;;;9.94;50.08;97892.34;2177419;81;21138;-76
2021/03/13 10:08:03;;;;;;;5.60;3.10;;;;;;;10.14;49.24;97897.09;2177192;81;21090;-75
2021/03/13 10:11:05;;;;;;;10.47;5.13;;;;;;;10.39;47.80;97892.73;2176695;81;21311;-75
2021/03/13 10:14:06;;;;;;;6.00;2.97;;;;;;;10.67;50.31;97891.36;2177223;82;21090;-75
2021/03/13 10:17:07;;;;;;;8.80;3.45;;;;;;;10.86;48.25;97887.80;2177526;81;21395;-75
2021/03/13 10:20:08;;;;;;;3.45;2.40;;;;;;;11.07;47.88;97888.13;2178266;81;21122;-75
2021/03/13 10:23:09;;;;;;;5.45;3.02;;;;;;;11.09;44.46;97885.94;2177428;81;21130;-76
2021/03/13 10:26:10;;;;;;;5.33;2.72;;;;;;;11.20;46.71;97888.93;2177974;81;21451;-76
2021/03/13 10:29:11;;;;;;;11.33;6.53;;;;;;;11.30;45.86;97875.84;2175731;81;21161;-75
2021/03/13 10:32:12;;;;;;;6.10;2.95;;;;;;;11.22;46.65;97869.77;2175915;81;21241;-75
2021/03/13 10:35:14;;;;;;;12.05;3.10;;;;;;;11.06;44.25;97865.50;2175986;81;21264;-76
2021/03/13 10:38:15;;;;;;;3.05;2.47;;;;;;;11.17;45.86;97857.17;2176093;82;21265;-76
2021/03/13 10:41:17;;;;;;;4.37;2.50;;;;;;;11.20;46.50;97865.42;2175609;81;21276;-77
2021/03/13 10:44:18;;;;;;;3.33;2.30;;;;;;;11.33;46.42;97861.89;2175870;81;21257;-76
2021/03/13 10:47:19;;;;;;;4.53;2.70;;;;;;;11.53;44.58;97849.55;2176325;81;21162;-75
2021/03/13 10:50:20;;;;;;;4.55;2.67;;;;;;;11.70;45.37;97848.09;2176033;81;21590;-76
2021/03/13 10:53:21;;;;;;;4.20;2.20;;;;;;;11.88;44.22;97836.20;2175781;81;21133;-76
2021/03/13 10:56:22;;;;;;;7.67;2.60;;;;;;;12.02;44.18;97831.70;2165012;81;21523;-76
2021/03/13 10:59:23;;;;;;;2.87;2.25;;;;;;;11.98;43.59;97832.61;2158473;82;21242;-76
2021/03/13 11:02:24;;;;;;;3.87;2.50;;;;;;;11.96;42.80;97834.82;2158349;82;21571;-76
2021/03/13 11:05:25;;;;;;;3.72;2.50;;;;;;;12.05;44.76;97825.57;2156623;82;21261;-75
2021/03/13 11:08:28;;;;;;;102.10;5.40;;;;;;;12.09;42.64;97824.66;2155789;82;21162;-75
2021/03/13 11:11:29;;;;;;;5.47;2.58;;;;;;;12.07;41.92;97811.59;2157789;82;21122;-76
2021/03/13 11:14:30;;;;;;;3.98;2.77;;;;;;;12.02;42.69;97827.78;2158819;82;22035;-76
2021/03/13 11:17:32;;;;;;;3.60;2.02;;;;;;;12.16;43.02;97818.95;2160104;81;21573;-76
2021/03/13 11:20:33;;;;;;;7.53;2.85;;;;;;;12.09;42.16;97808.52;2159709;82;21249;-76
2021/03/13 11:23:34;;;;;;;4.10;2.72;;;;;;;12.04;43.35;97812.94;2160206;82;21130;-77
2021/03/13 11:26:35;;;;;;;5.20;3.10;;;;;;;11.88;42.87;97815.28;2160360;82;21607;-76
2021/03/13 11:29:36;;;;;;;5.97;3.40;;;;;;;11.68;43.82;97815.44;2160285;82;21277;-76
2021/03/13 11:32:37;;;;;;;4.97;2.80;;;;;;;11.45;43.07;97802.56;2159832;82;21140;-76
2021/03/13 11:35:38;;;;;;;6.33;3.50;;;;;;;11.38;43.89;97804.80;2160960;82;21664;-75
2021/03/13 11:38:40;;;;;;;12.47;5.58;;;;;;;11.52;43.94;97812.97;2161413;82;21365;-76
2021/03/13 11:41:41;;;;;;;7.08;4.47;;;;;;;11.65;45.15;97801.53;2160795;82;21107;-76
2021/03/13 11:44:42;;;;;;;6.05;2.90;;;;;;;11.81;44.90;97813.61;2161379;82;21246;-76
2021/03/13 11:47:43;;;;;;;13.80;10.45;;;;;;;11.77;43.26;97804.92;2161646;82;21119;-76
2021/03/13 11:50:44;;;;;;;6.50;3.60;;;;;;;11.71;44.64;97787.09;2162018;82;21616;-77
2021/03/13 11:53:45;;;;;;;6.90;3.98;;;;;;;11.71;44.26;97793.19;2160896;82;21543;-76
2021/03/13 11:56:46;;;;;;;5.62;3.00;;;;;;;11.69;44.92;97796.70;2174153;82;21430;-76
2021/03/13 11:59:47;;;;;;;5.05;3.30;;;;;;;11.59;44.99;97798.97;2178892;81;21090;-76
2021/03/13 12:02:48;;;;;;;6.22;4.37;;;;;;;11.60;45.82;97788.94;2179254;82;21351;-76
2021/03/13 12:05:49;;;;;;;4.95;3.25;;;;;;;11.70;44.49;97769.23;2177029;81;21157;-76
2021/03/13 12:08:51;;;;;;;8.50;4.42;;;;;;;11.84;44.83;97760.41;2177491;81;21162;-77
2021/03/13 12:11:52;;;;;;;9.53;4.65;;;;;;;11.95;44.30;97751.58;2178376;81;21130;-76
2021/03/13 12:14:53;;;;;;;4.25;2.65;;;;;;;12.11;44.61;97750.52;2177907;81;21141;-76
2021/03/13 12:17:54;;;;;;;14.75;4.85;;;;;;;12.29;45.17;97744.23;2178722;81;21359;-76
2021/03/13 12:20:55;;;;;;;4.60;3.08;;;;;;;12.52;44.25;97741.31;2178660;81;21118;-76
2021/03/13 12:23:56;;;;;;;5.90;2.90;;;;;;;12.67;44.39;97728.01;2179094;81;21118;-76
2021/03/13 12:26:57;;;;;;;6.03;3.40;;;;;;;12.73;42.40;97717.45;2179275;81;21391;-77
2021/03/13 12:29:58;;;;;;;7.80;3.83;;;;;;;12.66;43.77;97713.19;2178814;81;21158;-76
2021/03/13 12:32:59;;;;;;;6.12;3.55;;;;;;;12.76;44.51;97700.38;2177305;81;21239;-76
2021/03/13 12:36:00;;;;;;;6.58;3.50;;;;;;;12.90;43.65;97700.61;2177008;81;21162;-76
2021/03/13 12:39:01;;;;;;;5.62;3.02;;;;;;;12.84;43.04;97698.09;2177597;81;21134;-76
2021/03/13 12:42:02;;;;;;;6.97;3.10;;;;;;;12.75;42.98;97692.11;2177507;81;21130;-76
2021/03/13 12:45:05;;;;;;;4.85;3.33;;;;;;;12.67;43.57;97686.13;2179293;81;21175;-76
2021/03/13 12:48:06;;;;;;;5.87;3.47;;;;;;;12.74;43.99;97688.20;2178524;81;21114;-77
2021/03/13 12:51:07;;;;;;;6.70;3.40;;;;;;;12.77;44.08;97684.23;2177855;81;21094;-77
2021/03/13 12:54:08;;;;;;;15.90;3.85;;;;;;;12.82;43.94;97686.77;2179609;81;21942;-77
2021/03/13 12:57:09;;;;;;;6.40;3.42;;;;;;;12.86;42.81;97684.53;2178659;81;21145;-77
2021/03/13 13:00:10;;;;;;;8.60;4.03;;;;;;;12.78;43.28;97691.20;2178439;81;21114;-78
2021/03/13 13:03:11;;;;;;;11.22;6.35;;;;;;;12.74;43.65;97694.30;2178942;81;21142;-77
2021/03/13 13:06:12;;;;;;;10.10;6.00;;;;;;;12.68;44.06;97683.05;2177448;81;21342;-77
2021/03/13 13:09:13;;;;;;;9.40;5.70;;;;;;;12.70;42.96;97691.31;2175950;81;21146;-77
2021/03/13 13:12:14;;;;;;;95.75;6.75;;;;;;;12.57;42.44;97700.23;2175777;81;21276;-77
2021/03/13 13:15:15;;;;;;;12.75;3.90;;;;;;;12.45;42.31;97680.77;2176372;81;21138;-77
2021/03/13 13:18:16;;;;;;;17.15;5.95;;;;;;;12.46;43.48;97699.96;2178001;81;21146;-77
2021/03/13 13:21:17;;;;;;;9.33;4.58;;;;;;;12.39;42.32;97686.09;2178836;81;21134;-78
2021/03/13 13:24:20;;;;;;;45.45;5.50;;;;;;;12.41;42.85;97686.50;2178276;82;21134;-78
2021/03/13 13:27:22;;;;;;;6.90;4.03;;;;;;;12.48;42.31;97684.66;2178741;81;21357;-78
2021/03/13 13:30:23;;;;;;;8.30;3.90;;;;;;;12.51;42.66;97682.44;2177405;81;21129;-77
2021/03/13 13:33:24;;;;;;;7.55;4.17;;;;;;;12.43;43.43;97671.64;2179532;81;21129;-78
2021/03/13 13:36:25;;;;;;;11.28;4.67;;;;;;;12.50;43.39;97658.47;2179450;81;21118;-77
2021/03/13 13:39:26;;;;;;;13.83;5.78;;;;;;;12.39;42.58;97669.95;2179313;81;21134;-78
2021/03/13 13:42:27;;;;;;;9.38;4.12;;;;;;;12.19;42.35;97665.88;2179332;81;21212;-76
2021/03/13 13:45:28;;;;;;;9.63;4.17;;;;;;;12.02;43.62;97668.23;2179445;81;21392;-76
2021/03/13 13:48:29;;;;;;;7.47;4.10;;;;;;;11.94;43.69;97667.47;2178983;81;21137;-76
2021/03/13 13:51:30;;;;;;;10.35;4.47;;;;;;;11.91;44.41;97671.87;2179736;82;21114;-77
2021/03/13 13:54:32;;;;;;;8.28;4.00;;;;;;;11.86;44.19;97675.84;2179353;81;21415;-76
2021/03/13 13:57:33;;;;;;;6.85;3.80;;;;;;;11.73;43.95;97666.38;2165172;82;21269;-77
2021/03/13 14:00:34;;;;;;;4.80;3.35;;;;;;;11.65;43.96;97669.08;2162079;82;21222;-77
2021/03/13 14:03:35;;;;;;;7.15;3.72;;;;;;;11.67;43.42;97655.55;2162082;82;21411;-78
2021/03/13 14:06:36;;;;;;;10.08;4.05;;;;;;;11.64;43.50;97654.73;2162046;82;21269;-77